Midland, Georgia
Current Conditions -  °F | °C
As of 12:51 PM on Wednesday 26 Nov 2014 (Local Time) from KCSG Reporting Station
Clear Clear  
Wind Chill: 56°   Ceiling: Unl
Heat Index: 56°   Visibility: 10mi
Dew Point: 21°   Wind: 9mph
Humidity: 26%   Direction: 330°NNW
Pressure: 30.14"   Gusts: NA
Location:  32.57°N, 84.83°W
Report Text: KCSG 261751Z 33008KT 10SM CLR 13/M06 A3014 RMK AO2 SLP205 T01331061 10139 20056 58004
Loading
Personal Weather Stations






























Interactive Weather Map New forecast layout! Learn more

10-Day Weather Forecast

Advertisements
Track Severe Weather on mobile